sensor_id;sensor_type;location;lat;lon;timestamp;pressure;altitude;pressure_sealevel;temperature;humidity
34197;BME280;36594;45.192;5.722;2023-04-10T00:01:15;99553.95;;;24.92;33.16
34197;BME280;36594;45.192;5.722;2023-04-10T00:04:04;99555.61;;;24.93;33.14
34197;BME280;36594;45.192;5.722;2023-04-10T00:06:52;99553.16;;;24.94;33.13
34197;BME280;36594;45.192;5.722;2023-04-10T00:09:42;99548.73;;;24.93;33.17
34197;BME280;36594;45.192;5.722;2023-04-10T00:12:30;99548.20;;;24.94;33.13
34197;BME280;36594;45.192;5.722;2023-04-10T00:15:18;99549.09;;;24.97;33.08
34197;BME280;36594;45.192;5.722;2023-04-10T00:18:07;99550.46;;;24.97;33.09
34197;BME280;36594;45.192;5.722;2023-04-10T00:20:55;99552.91;;;24.96;33.09
34197;BME280;36594;45.192;5.722;2023-04-10T00:23:44;99553.70;;;24.94;33.14
34197;BME280;36594;45.192;5.722;2023-04-10T00:26:33;99554.23;;;24.93;33.09
34197;BME280;36594;45.192;5.722;2023-04-10T00:29:21;99553.12;;;24.92;33.15
34197;BME280;36594;45.192;5.722;2023-04-10T00:32:10;99554.00;;;24.95;33.10
34197;BME280;36594;45.192;5.722;2023-04-10T00:34:58;99548.16;;;24.91;33.14
34197;BME280;36594;45.192;5.722;2023-04-10T00:37:47;99546.73;;;24.89;33.23
34197;BME280;36594;45.192;5.722;2023-04-10T00:40:36;99549.48;;;24.89;33.24
34197;BME280;36594;45.192;5.722;2023-04-10T00:43:25;99540.40;;;24.88;33.21
34197;BME280;36594;45.192;5.722;2023-04-10T00:46:13;99538.58;;;24.94;33.14
34197;BME280;36594;45.192;5.722;2023-04-10T00:49:02;99540.75;;;24.92;33.15
34197;BME280;36594;45.192;5.722;2023-04-10T00:51:53;99539.12;;;24.93;33.11
34197;BME280;36594;45.192;5.722;2023-04-10T00:54:42;99541.59;;;24.92;33.06
34197;BME280;36594;45.192;5.722;2023-04-10T00:57:30;99552.81;;;24.91;33.08
34197;BME280;36594;45.192;5.722;2023-04-10T01:00:20;99546.47;;;24.90;33.08
34197;BME280;36594;45.192;5.722;2023-04-10T01:03:09;99546.47;;;24.90;33.08
34197;BME280;36594;45.192;5.722;2023-04-10T01:06:18;99538.80;;;24.90;33.04
34197;BME280;36594;45.192;5.722;2023-04-10T01:12:07;99548.37;;;24.87;33.09
34197;BME280;36594;45.192;5.722;2023-04-10T01:18:03;99543.73;;;24.90;33.02
34197;BME280;36594;45.192;5.722;2023-04-10T01:20:51;99539.02;;;24.88;33.04
34197;BME280;36594;45.192;5.722;2023-04-10T01:27:29;99537.38;;;24.87;33.06
34197;BME280;36594;45.192;5.722;2023-04-10T01:30:15;99541.14;;;24.84;33.07
34197;BME280;36594;45.192;5.722;2023-04-10T01:33:05;99551.02;;;24.82;33.11
34197;BME280;36594;45.192;5.722;2023-04-10T01:35:57;99543.31;;;24.82;33.09
34197;BME280;36594;45.192;5.722;2023-04-10T01:38:47;99546.95;;;24.85;33.04
34197;BME280;36594;45.192;5.722;2023-04-10T01:41:40;99539.72;;;24.81;33.07
34197;BME280;36594;45.192;5.722;2023-04-10T01:44:31;99539.77;;;24.84;33.04
34197;BME280;36594;45.192;5.722;2023-04-10T01:47:21;99539.77;;;24.84;33.04
34197;BME280;36594;45.192;5.722;2023-04-10T01:50:11;99534.84;;;24.83;33.05
34197;BME280;36594;45.192;5.722;2023-04-10T01:53:03;99537.02;;;24.84;33.02
34197;BME280;36594;45.192;5.722;2023-04-10T01:55:52;99533.74;;;24.84;32.99
34197;BME280;36594;45.192;5.722;2023-04-10T01:58:42;99538.13;;;24.83;33.02
34197;BME280;36594;45.192;5.722;2023-04-10T02:01:31;99538.40;;;24.84;32.98
34197;BME280;36594;45.192;5.722;2023-04-10T02:04:19;99539.77;;;24.84;32.98
34197;BME280;36594;45.192;5.722;2023-04-10T02:07:15;99538.34;;;24.81;32.99
34197;BME280;36594;45.192;5.722;2023-04-10T02:10:12;99537.81;;;24.82;32.97
34197;BME280;36594;45.192;5.722;2023-04-10T02:13:06;99537.23;;;24.80;33.03
34197;BME280;36594;45.192;5.722;2023-04-10T02:15:58;99532.05;;;24.81;33.01
34197;BME280;36594;45.192;5.722;2023-04-10T02:18:48;99538.92;;;24.81;32.99
34197;BME280;36594;45.192;5.722;2023-04-10T02:21:38;99544.20;;;24.85;32.89
34197;BME280;36594;45.192;5.722;2023-04-10T02:24:28;99543.04;;;24.81;32.99
34197;BME280;36594;45.192;5.722;2023-04-10T02:27:37;99548.76;;;24.79;33.00
34197;BME280;36594;45.192;5.722;2023-04-10T02:30:20;99547.92;;;24.79;33.01
34197;BME280;36594;45.192;5.722;2023-04-10T02:33:10;99551.77;;;24.78;33.01
34197;BME280;36594;45.192;5.722;2023-04-10T02:36:00;99557.00;;;24.79;32.99
34197;BME280;36594;45.192;5.722;2023-04-10T02:38:48;99550.09;;;24.77;32.97
34197;BME280;36594;45.192;5.722;2023-04-10T02:41:36;99558.55;;;24.75;33.01
34197;BME280;36594;45.192;5.722;2023-04-10T02:44:25;99558.63;;;24.78;33.01
34197;BME280;36594;45.192;5.722;2023-04-10T02:47:14;99563.29;;;24.77;33.00
34197;BME280;36594;45.192;5.722;2023-04-10T02:50:05;99560.84;;;24.78;32.98
34197;BME280;36594;45.192;5.722;2023-04-10T02:52:56;99553.59;;;24.74;33.02
34197;BME280;36594;45.192;5.722;2023-04-10T02:55:44;99561.91;;;24.77;32.98
34197;BME280;36594;45.192;5.722;2023-04-10T02:58:33;99571.58;;;24.80;32.92
34197;BME280;36594;45.192;5.722;2023-04-10T03:01:22;99572.91;;;24.77;32.95
34197;BME280;36594;45.192;5.722;2023-04-10T03:04:11;99577.02;;;24.77;32.96
34197;BME280;36594;45.192;5.722;2023-04-10T03:07:00;99582.83;;;24.78;32.94
34197;BME280;36594;45.192;5.722;2023-04-10T03:09:49;99580.89;;;24.79;32.91
34197;BME280;36594;45.192;5.722;2023-04-10T03:12:38;99587.00;;;24.81;32.91
34197;BME280;36594;45.192;5.722;2023-04-10T03:15:26;99576.19;;;24.77;32.95
34197;BME280;36594;45.192;5.722;2023-04-10T03:18:16;99578.40;;;24.77;32.92
34197;BME280;36594;45.192;5.722;2023-04-10T03:21:06;99584.99;;;24.76;32.95
34197;BME280;36594;45.192;5.722;2023-04-10T03:23:54;99591.52;;;24.75;33.13
34197;BME280;36594;45.192;5.722;2023-04-10T03:26:43;99591.52;;;24.75;33.13
34197;BME280;36594;45.192;5.722;2023-04-10T03:29:32;99585.49;;;24.76;32.93
34197;BME280;36594;45.192;5.722;2023-04-10T03:32:20;99585.80;;;24.77;32.91
34197;BME280;36594;45.192;5.722;2023-04-10T03:35:09;99581.14;;;24.77;32.91
34197;BME280;36594;45.192;5.722;2023-04-10T03:37:58;99582.83;;;24.78;32.89
34197;BME280;36594;45.192;5.722;2023-04-10T03:40:46;99583.64;;;24.79;32.86
34197;BME280;36594;45.192;5.722;2023-04-10T03:43:35;99578.12;;;24.76;32.84
34197;BME280;36594;45.192;5.722;2023-04-10T03:46:24;99580.00;;;24.76;32.88
34197;BME280;36594;45.192;5.722;2023-04-10T03:49:13;99585.49;;;24.76;32.88
34197;BME280;36594;45.192;5.722;2023-04-10T03:52:02;99585.19;;;24.74;32.88
34197;BME280;36594;45.192;5.722;2023-04-10T03:54:50;99586.36;;;24.76;32.86
34197;BME280;36594;45.192;5.722;2023-04-10T03:57:41;99590.50;;;24.79;32.83
34197;BME280;36594;45.192;5.722;2023-04-10T04:00:30;99588.23;;;24.76;32.83
34197;BME280;36594;45.192;5.722;2023-04-10T04:03:20;99584.99;;;24.76;32.81
34197;BME280;36594;45.192;5.722;2023-04-10T04:06:10;99585.72;;;24.74;32.85
34197;BME280;36594;45.192;5.722;2023-04-10T04:09:12;99586.03;;;24.75;32.82
34197;BME280;36594;45.192;5.722;2023-04-10T04:12:14;99583.81;;;24.74;32.85
34197;BME280;36594;45.192;5.722;2023-04-10T04:15:19;99586.23;;;24.71;32.89
34197;BME280;36594;45.192;5.722;2023-04-10T04:18:23;99590.58;;;24.69;32.88
34197;BME280;36594;45.192;5.722;2023-04-10T04:21:13;99588.41;;;24.71;32.89
34197;BME280;36594;45.192;5.722;2023-04-10T04:24:22;99593.33;;;24.69;32.90
34197;BME280;36594;45.192;5.722;2023-04-10T04:27:18;99602.72;;;24.71;32.86
34197;BME280;36594;45.192;5.722;2023-04-10T04:30:10;99599.17;;;24.73;32.86
34197;BME280;36594;45.192;5.722;2023-04-10T04:33:06;99601.03;;;24.70;32.90
34197;BME280;36594;45.192;5.722;2023-04-10T04:35:56;99605.69;;;24.69;32.93
34197;BME280;36594;45.192;5.722;2023-04-10T04:38:55;99602.94;;;24.69;32.88
34197;BME280;36594;45.192;5.722;2023-04-10T04:42:00;99602.36;;;24.67;32.87
34197;BME280;36594;45.192;5.722;2023-04-10T04:44:50;99604.04;;;24.68;32.88
34197;BME280;36594;45.192;5.722;2023-04-10T04:47:49;99607.84;;;24.67;32.89
34197;BME280;36594;45.192;5.722;2023-04-10T04:50:42;99612.55;;;24.69;32.88
34197;BME280;36594;45.192;5.722;2023-04-10T04:53:35;99613.70;;;24.71;32.85
34197;BME280;36594;45.192;5.722;2023-04-10T04:56:25;99614.52;;;24.71;32.82
34197;BME280;36594;45.192;5.722;2023-04-10T04:59:21;99610.95;;;24.71;32.81
34197;BME280;36594;45.192;5.722;2023-04-10T05:02:14;99612.55;;;24.69;32.87
34197;BME280;36594;45.192;5.722;2023-04-10T05:05:23;99607.95;;;24.72;32.83
34197;BME280;36594;45.192;5.722;2023-04-10T05:08:13;99612.02;;;24.70;32.84
34197;BME280;36594;45.192;5.722;2023-04-10T05:11:15;99614.49;;;24.69;32.85
34197;BME280;36594;45.192;5.722;2023-04-10T05:14:12;99623.02;;;24.70;32.84
34197;BME280;36594;45.192;5.722;2023-04-10T05:17:08;99620.58;;;24.71;32.82
34197;BME280;36594;45.192;5.722;2023-04-10T05:20:08;99626.92;;;24.74;32.76
34197;BME280;36594;45.192;5.722;2023-04-10T05:23:17;99626.06;;;24.57;30.28
34197;BME280;36594;45.192;5.722;2023-04-10T05:26:16;99632.07;;;24.42;30.35
34197;BME280;36594;45.192;5.722;2023-04-10T05:29:15;99628.73;;;24.40;31.07
34197;BME280;36594;45.192;5.722;2023-04-10T05:32:05;99625.79;;;24.44;31.37
34197;BME280;36594;45.192;5.722;2023-04-10T05:34:56;99632.41;;;24.46;31.43
34197;BME280;36594;45.192;5.722;2023-04-10T05:37:52;99629.66;;;24.46;31.50
34197;BME280;36594;45.192;5.722;2023-04-10T05:40:43;99631.39;;;24.49;31.49
34197;BME280;36594;45.192;5.722;2023-04-10T05:43:34;99630.61;;;24.51;31.46
34197;BME280;36594;45.192;5.722;2023-04-10T05:46:32;99631.54;;;24.43;29.65
34197;BME280;36594;45.192;5.722;2023-04-10T05:49:35;99626.19;;;24.36;29.29
34197;BME280;36594;45.192;5.722;2023-04-10T05:52:25;99629.41;;;24.33;29.58
34197;BME280;36594;45.192;5.722;2023-04-10T05:55:24;99631.31;;;24.33;29.96
34197;BME280;36594;45.192;5.722;2023-04-10T05:58:17;99636.53;;;24.32;30.27
34197;BME280;36594;45.192;5.722;2023-04-10T06:01:22;99636.53;;;24.32;30.48
34197;BME280;36594;45.192;5.722;2023-04-10T06:04:12;99641.18;;;24.31;30.63
34197;BME280;36594;45.192;5.722;2023-04-10T06:07:01;99641.66;;;24.28;30.76
34197;BME280;36594;45.192;5.722;2023-04-10T06:09:51;99641.66;;;24.28;30.87
34197;BME280;36594;45.192;5.722;2023-04-10T06:12:39;99646.08;;;24.29;30.98
34197;BME280;36594;45.192;5.722;2023-04-10T06:15:29;99653.70;;;24.27;31.01
34197;BME280;36594;45.192;5.722;2023-04-10T06:18:18;99654.54;;;24.28;31.06
34197;BME280;36594;45.192;5.722;2023-04-10T06:21:08;99646.55;;;24.26;31.09
34197;BME280;36594;45.192;5.722;2023-04-10T06:23:58;99653.42;;;24.26;31.13
34197;BME280;36594;45.192;5.722;2023-04-10T06:26:47;99649.83;;;24.26;31.21
34197;BME280;36594;45.192;5.722;2023-04-10T06:29:35;99655.69;;;24.29;31.24
34197;BME280;36594;45.192;5.722;2023-04-10T06:32:23;99658.44;;;24.29;31.23
34197;BME280;36594;45.192;5.722;2023-04-10T06:35:12;99662.30;;;24.31;31.29
34197;BME280;36594;45.192;5.722;2023-04-10T06:38:01;99654.91;;;24.31;31.27
34197;BME280;36594;45.192;5.722;2023-04-10T06:40:51;99654.38;;;24.32;31.36
34197;BME280;36594;45.192;5.722;2023-04-10T06:43:39;99646.81;;;24.25;31.42
34197;BME280;36594;45.192;5.722;2023-04-10T06:46:27;99655.38;;;24.28;31.39
34197;BME280;36594;45.192;5.722;2023-04-10T06:49:15;99658.66;;;24.28;31.46
34197;BME280;36594;45.192;5.722;2023-04-10T06:52:04;99658.91;;;24.26;31.53
34197;BME280;36594;45.192;5.722;2023-04-10T06:54:54;99660.03;;;24.28;31.55
34197;BME280;36594;45.192;5.722;2023-04-10T06:57:42;99660.40;;;24.31;31.60
34197;BME280;36594;45.192;5.722;2023-04-10T07:00:31;99662.24;;;24.28;31.63
34197;BME280;36594;45.192;5.722;2023-04-10T07:03:20;99663.92;;;24.29;31.65
34197;BME280;36594;45.192;5.722;2023-04-10T07:06:09;99658.72;;;24.30;31.71
34197;BME280;36594;45.192;5.722;2023-04-10T07:08:58;99643.61;;;24.30;31.76
34197;BME280;36594;45.192;5.722;2023-04-10T07:11:47;99646.08;;;24.29;31.80
34197;BME280;36594;45.192;5.722;2023-04-10T07:14:35;99654.91;;;24.31;31.82
34197;BME280;36594;45.192;5.722;2023-04-10T07:17:24;99649.11;;;24.30;31.85
34197;BME280;36594;45.192;5.722;2023-04-10T07:20:12;99644.98;;;24.30;31.86
34197;BME280;36594;45.192;5.722;2023-04-10T07:23:01;99644.14;;;24.30;31.88
34197;BME280;36594;45.192;5.722;2023-04-10T07:25:49;99638.44;;;24.31;31.87
34197;BME280;36594;45.192;5.722;2023-04-10T07:28:38;99642.02;;;24.32;31.90
34197;BME280;36594;45.192;5.722;2023-04-10T07:31:26;99642.24;;;24.30;31.95
34197;BME280;36594;45.192;5.722;2023-04-10T07:34:14;99647.73;;;24.30;32.00
34197;BME280;36594;45.192;5.722;2023-04-10T07:37:03;99638.38;;;24.29;32.03
34197;BME280;36594;45.192;5.722;2023-04-10T07:39:51;99640.87;;;24.30;32.04
34197;BME280;36594;45.192;5.722;2023-04-10T07:42:39;99643.39;;;24.32;32.07
34197;BME280;36594;45.192;5.722;2023-04-10T07:45:27;99640.64;;;24.32;32.08
34197;BME280;36594;45.192;5.722;2023-04-10T07:48:16;99637.39;;;24.35;32.09
34197;BME280;36594;45.192;5.722;2023-04-10T07:51:05;99636.53;;;24.32;32.13
34197;BME280;36594;45.192;5.722;2023-04-10T07:53:55;99639.30;;;24.34;32.10
34197;BME280;36594;45.192;5.722;2023-04-10T07:56:44;99640.67;;;24.34;32.11
34197;BME280;36594;45.192;5.722;2023-04-10T07:59:32;99635.18;;;24.34;32.13
34197;BME280;36594;45.192;5.722;2023-04-10T08:02:20;99640.39;;;24.33;32.12
34197;BME280;36594;45.192;5.722;2023-04-10T08:05:09;99642.61;;;24.34;32.15
34197;BME280;36594;45.192;5.722;2023-04-10T08:07:57;99644.52;;;24.33;32.14
34197;BME280;36594;45.192;5.722;2023-04-10T08:10:46;99643.14;;;24.33;32.20
34197;BME280;36594;45.192;5.722;2023-04-10T08:13:35;99635.48;;;24.35;32.20
34197;BME280;36594;45.192;5.722;2023-04-10T08:16:25;99637.12;;;24.34;32.20
34197;BME280;36594;45.192;5.722;2023-04-10T08:19:13;99640.39;;;24.33;32.24
34197;BME280;36594;45.192;5.722;2023-04-10T08:22:04;99637.65;;;24.33;32.27
34197;BME280;36594;45.192;5.722;2023-04-10T08:24:52;99642.05;;;24.34;32.28
34197;BME280;36594;45.192;5.722;2023-04-10T08:27:41;99645.05;;;24.33;32.28
34197;BME280;36594;45.192;5.722;2023-04-10T08:30:29;99631.31;;;24.33;32.34
34197;BME280;36594;45.192;5.722;2023-04-10T08:33:17;99631.84;;;24.32;32.34
34197;BME280;36594;45.192;5.722;2023-04-10T08:36:08;99628.57;;;24.33;32.35
34197;BME280;36594;45.192;5.722;2023-04-10T08:38:57;99629.69;;;24.34;32.34
34197;BME280;36594;45.192;5.722;2023-04-10T08:41:45;99628.31;;;24.34;32.37
34197;BME280;36594;45.192;5.722;2023-04-10T08:44:34;99631.84;;;24.32;32.44
34197;BME280;36594;45.192;5.722;2023-04-10T08:47:26;99628.04;;;24.33;32.43
34197;BME280;36594;45.192;5.722;2023-04-10T08:50:17;99631.57;;;24.31;32.45
34197;BME280;36594;45.192;5.722;2023-04-10T08:53:11;99632.94;;;24.31;32.47
34197;BME280;36594;45.192;5.722;2023-04-10T08:55:56;99632.10;;;24.31;32.47
34197;BME280;36594;45.192;5.722;2023-04-10T08:58:45;99624.92;;;24.30;32.52
34197;BME280;36594;45.192;5.722;2023-04-10T09:01:34;99625.55;;;24.32;32.50
34197;BME280;36594;45.192;5.722;2023-04-10T09:04:24;99621.13;;;24.31;32.56
34197;BME280;36594;45.192;5.722;2023-04-10T09:07:12;99625.77;;;24.30;32.59
34197;BME280;36594;45.192;5.722;2023-04-10T09:10:01;99626.87;;;24.29;32.60
34197;BME280;36594;45.192;5.722;2023-04-10T09:12:50;99623.87;;;24.31;32.60
34197;BME280;36594;45.192;5.722;2023-04-10T09:15:56;99622.49;;;24.31;32.62
34197;BME280;36594;45.192;5.722;2023-04-10T09:18:50;99621.13;;;24.31;32.66
34197;BME280;36594;45.192;5.722;2023-04-10T09:21:38;99618.06;;;24.30;32.68
34197;BME280;36594;45.192;5.722;2023-04-10T09:24:27;99613.42;;;24.30;32.68
34197;BME280;36594;45.192;5.722;2023-04-10T09:27:32;99617.53;;;24.30;32.68
34197;BME280;36594;45.192;5.722;2023-04-10T09:30:39;99612.88;;;24.31;32.72
34197;BME280;36594;45.192;5.722;2023-04-10T09:33:27;99608.45;;;24.30;32.74
34197;BME280;36594;45.192;5.722;2023-04-10T09:36:16;99607.88;;;24.28;32.76
34197;BME280;36594;45.192;5.722;2023-04-10T09:39:05;99602.16;;;24.29;32.78
34197;BME280;36594;45.192;5.722;2023-04-10T09:41:54;99602.97;;;24.30;32.76
34197;BME280;36594;45.192;5.722;2023-04-10T09:44:42;99602.23;;;24.34;32.65
34197;BME280;36594;45.192;5.722;2023-04-10T09:47:31;99591.56;;;24.35;32.61
34197;BME280;36594;45.192;5.722;2023-04-10T09:50:21;99591.56;;;24.35;32.65
34197;BME280;36594;45.192;5.722;2023-04-10T09:53:16;99584.70;;;24.35;32.63
34197;BME280;36594;45.192;5.722;2023-04-10T09:56:07;99576.72;;;24.34;32.67
34197;BME280;36594;45.192;5.722;2023-04-10T09:59:00;99572.29;;;24.33;32.67
34197;BME280;36594;45.192;5.722;2023-04-10T10:01:50;99568.22;;;24.35;32.66
34197;BME280;36594;45.192;5.722;2023-04-10T10:04:38;99571.23;;;24.34;32.69
34197;BME280;36594;45.192;5.722;2023-04-10T10:07:29;99569.55;;;24.33;32.75
34197;BME280;36594;45.192;5.722;2023-04-10T10:10:18;99569.85;;;24.34;32.76
34197;BME280;36594;45.192;5.722;2023-04-10T10:13:08;99567.16;;;24.36;32.76
34197;BME280;36594;45.192;5.722;2023-04-10T10:16:02;99563.05;;;24.36;32.79
34197;BME280;36594;45.192;5.722;2023-04-10T10:18:53;99560.88;;;24.38;32.78
34197;BME280;36594;45.192;5.722;2023-04-10T10:21:43;99556.17;;;24.36;32.82
34197;BME280;36594;45.192;5.722;2023-04-10T10:24:32;99552.34;;;24.37;32.81
34197;BME280;36594;45.192;5.722;2023-04-10T10:27:24;99555.61;;;24.37;32.84
34197;BME280;36594;45.192;5.722;2023-04-10T10:30:13;99544.63;;;24.37;32.83
34197;BME280;36594;45.192;5.722;2023-04-10T10:33:05;99545.47;;;24.37;32.87
34197;BME280;36594;45.192;5.722;2023-04-10T10:36:00;99544.09;;;24.37;32.86
34197;BME280;36594;45.192;5.722;2023-04-10T10:47:56;99523.97;;;24.32;32.96
34197;BME280;36594;45.192;5.722;2023-04-10T10:50:56;99524.78;;;24.32;33.01
34197;BME280;36594;45.192;5.722;2023-04-10T10:53:45;99522.39;;;24.36;32.95
34197;BME280;36594;45.192;5.722;2023-04-10T10:56:34;99523.98;;;24.34;32.98
34197;BME280;36594;45.192;5.722;2023-04-10T11:02:36;99516.06;;;24.35;33.00
34197;BME280;36594;45.192;5.722;2023-04-10T11:08:42;99511.69;;;24.37;33.03
34197;BME280;36594;45.192;5.722;2023-04-10T11:11:36;99506.14;;;24.34;33.09
34197;BME280;36594;45.192;5.722;2023-04-10T11:14:24;99493.52;;;24.33;33.06
34197;BME280;36594;45.192;5.722;2023-04-10T11:17:21;99502.08;;;24.37;33.04
34197;BME280;36594;45.192;5.722;2023-04-10T11:20:06;99497.73;;;24.38;33.03
34197;BME280;36594;45.192;5.722;2023-04-10T11:23:11;99494.09;;;24.35;33.10
34197;BME280;36594;45.192;5.722;2023-04-10T11:25:59;99494.41;;;24.36;33.10
34197;BME280;36594;45.192;5.722;2023-04-10T11:28:47;99492.77;;;24.38;33.09
34197;BME280;36594;45.192;5.722;2023-04-10T11:31:36;99496.36;;;24.38;33.10
34197;BME280;36594;45.192;5.722;2023-04-10T11:34:25;99495.78;;;24.36;33.15
34197;BME280;36594;45.192;5.722;2023-04-10T11:37:23;99495.27;;;24.39;33.05
34197;BME280;36594;45.192;5.722;2023-04-10T11:40:12;99494.20;;;24.40;33.01
34197;BME280;36594;45.192;5.722;2023-04-10T11:43:13;99490.61;;;24.40;32.97
34197;BME280;36594;45.192;5.722;2023-04-10T11:46:03;99499.16;;;24.41;33.07
34197;BME280;36594;45.192;5.722;2023-04-10T11:49:00;99496.63;;;24.39;33.02
34197;BME280;36594;45.192;5.722;2023-04-10T11:51:50;99499.96;;;24.41;32.97
34197;BME280;36594;45.192;5.722;2023-04-10T11:54:46;99496.63;;;24.39;33.06
34197;BME280;36594;45.192;5.722;2023-04-10T11:57:37;99488.40;;;24.39;32.94
34197;BME280;36594;45.192;5.722;2023-04-10T12:00:22;99477.95;;;24.39;33.08
34197;BME280;36594;45.192;5.722;2023-04-10T12:03:10;99474.14;;;24.40;32.96
34197;BME280;36594;45.192;5.722;2023-04-10T12:05:59;99456.83;;;24.39;32.85
34197;BME280;36594;45.192;5.722;2023-04-10T12:08:48;99452.70;;;24.39;33.02
34197;BME280;36594;45.192;5.722;2023-04-10T12:11:37;99444.77;;;24.40;33.06
34197;BME280;36594;45.192;5.722;2023-04-10T12:14:41;99442.88;;;24.41;33.05
34197;BME280;36594;45.192;5.722;2023-04-10T12:17:20;99436.28;;;24.42;33.00
34197;BME280;36594;45.192;5.722;2023-04-10T12:20:09;99445.05;;;24.41;33.03
34197;BME280;36594;45.192;5.722;2023-04-10T12:22:58;99440.70;;;24.43;33.03
34197;BME280;36594;45.192;5.722;2023-04-10T12:25:48;99434.91;;;24.42;33.07
34197;BME280;36594;45.192;5.722;2023-04-10T12:28:39;99438.80;;;24.43;33.08
34197;BME280;36594;45.192;5.722;2023-04-10T12:31:32;99428.63;;;24.44;32.92
34197;BME280;36594;45.192;5.722;2023-04-10T12:34:20;99429.99;;;24.44;32.85
34197;BME280;36594;45.192;5.722;2023-04-10T12:37:09;99420.11;;;24.43;32.95
34197;BME280;36594;45.192;5.722;2023-04-10T12:40:05;99425.65;;;24.45;32.94
34197;BME280;36594;45.192;5.722;2023-04-10T12:42:54;99424.81;;;24.45;32.86
34197;BME280;36594;45.192;5.722;2023-04-10T12:45:43;99411.35;;;24.46;32.82
34197;BME280;36594;45.192;5.722;2023-04-10T12:48:32;99414.66;;;24.45;32.83
34197;BME280;36594;45.192;5.722;2023-04-10T12:51:47;99410.82;;;24.46;32.79
34197;BME280;36594;45.192;5.722;2023-04-10T12:54:34;99410.82;;;24.46;32.83
34197;BME280;36594;45.192;5.722;2023-04-10T12:57:26;99419.58;;;24.43;32.85
34197;BME280;36594;45.192;5.722;2023-04-10T13:00:19;99412.73;;;24.46;32.67
34197;BME280;36594;45.192;5.722;2023-04-10T13:03:08;99401.52;;;24.47;32.44
34197;BME280;36594;45.192;5.722;2023-04-10T13:05:57;99407.59;;;24.49;32.25
34197;BME280;36594;45.192;5.722;2023-04-10T13:08:45;99402.09;;;24.49;32.16
34197;BME280;36594;45.192;5.722;2023-04-10T13:11:34;99404.84;;;24.49;32.03
34197;BME280;36594;45.192;5.722;2023-04-10T13:14:22;99399.92;;;24.51;31.65
34197;BME280;36594;45.192;5.722;2023-04-10T13:17:11;99399.66;;;24.53;31.69
34197;BME280;36594;45.192;5.722;2023-04-10T13:19:59;99380.17;;;24.52;31.12
34197;BME280;36594;45.192;5.722;2023-04-10T13:22:48;99383.75;;;24.52;31.23
34197;BME280;36594;45.192;5.722;2023-04-10T13:25:37;99383.19;;;24.53;31.32
34197;BME280;36594;45.192;5.722;2023-04-10T13:28:26;99381.01;;;24.52;30.93
34197;BME280;36594;45.192;5.722;2023-04-10T13:31:14;99378.53;;;24.53;30.59
34197;BME280;36594;45.192;5.722;2023-04-10T13:34:03;99370.30;;;24.53;30.69
34197;BME280;36594;45.192;5.722;2023-04-10T13:36:51;99371.05;;;24.49;31.35
34197;BME280;36594;45.192;5.722;2023-04-10T13:39:40;99371.89;;;24.49;31.60
34197;BME280;36594;45.192;5.722;2023-04-10T13:42:29;99373.22;;;24.47;31.71
34197;BME280;36594;45.192;5.722;2023-04-10T13:45:18;99380.66;;;24.49;31.69
34197;BME280;36594;45.192;5.722;2023-04-10T13:48:07;99377.87;;;24.46;31.77
34197;BME280;36594;45.192;5.722;2023-04-10T13:50:55;99387.78;;;24.47;31.67
34197;BME280;36594;45.192;5.722;2023-04-10T13:53:43;99379.82;;;24.48;31.81
34197;BME280;36594;45.192;5.722;2023-04-10T13:56:32;99380.66;;;24.49;31.73
34197;BME280;36594;45.192;5.722;2023-04-10T13:59:21;99382.83;;;24.47;31.83
34197;BME280;36594;45.192;5.722;2023-04-10T14:02:09;99385.04;;;24.47;31.91
34197;BME280;36594;45.192;5.722;2023-04-10T14:04:57;99380.61;;;24.46;32.00
34197;BME280;36594;45.192;5.722;2023-04-10T14:07:46;99372.38;;;24.46;32.07
34197;BME280;36594;45.192;5.722;2023-04-10T14:10:37;99378.70;;;24.47;32.09
34197;BME280;36594;45.192;5.722;2023-04-10T14:13:26;99382.78;;;24.44;32.16
34197;BME280;36594;45.192;5.722;2023-04-10T14:16:16;99381.84;;;24.36;32.23
34197;BME280;36594;45.192;5.722;2023-04-10T14:19:04;99385.53;;;24.44;32.35
34197;BME280;36594;45.192;5.722;2023-04-10T14:21:52;99385.53;;;24.44;32.21
34197;BME280;36594;45.192;5.722;2023-04-10T14:24:41;99392.70;;;24.45;32.21
34197;BME280;36594;45.192;5.722;2023-04-10T14:27:29;99388.27;;;24.44;32.36
34197;BME280;36594;45.192;5.722;2023-04-10T14:30:19;99384.16;;;24.44;32.41
34197;BME280;36594;45.192;5.722;2023-04-10T14:33:07;99371.80;;;24.44;32.40
34197;BME280;36594;45.192;5.722;2023-04-10T14:35:55;99373.22;;;24.47;32.34
34197;BME280;36594;45.192;5.722;2023-04-10T14:38:43;99362.63;;;24.39;32.22
34197;BME280;36594;45.192;5.722;2023-04-10T14:41:32;99372.91;;;24.46;32.20
34197;BME280;36594;45.192;5.722;2023-04-10T14:44:20;99375.43;;;24.47;31.75
34197;BME280;36594;45.192;5.722;2023-04-10T14:47:09;99375.52;;;24.52;31.49
34197;BME280;36594;45.192;5.722;2023-04-10T14:49:57;99379.59;;;24.50;31.90
34197;BME280;36594;45.192;5.722;2023-04-10T14:52:46;99372.15;;;24.48;32.17
34197;BME280;36594;45.192;5.722;2023-04-10T14:55:35;99366.39;;;24.49;32.24
34197;BME280;36594;45.192;5.722;2023-04-10T14:58:24;99368.56;;;24.47;32.32
34197;BME280;36594;45.192;5.722;2023-04-10T15:01:14;99366.89;;;24.46;32.39
34197;BME280;36594;45.192;5.722;2023-04-10T15:04:02;99365.23;;;24.45;32.43
34197;BME280;36594;45.192;5.722;2023-04-10T15:06:51;99357.27;;;24.46;32.48
34197;BME280;36594;45.192;5.722;2023-04-10T15:09:39;99353.95;;;24.44;32.53
34197;BME280;36594;45.192;5.722;2023-04-10T15:12:29;99355.63;;;24.45;32.51
34197;BME280;36594;45.192;5.722;2023-04-10T15:15:17;99353.42;;;24.45;32.48
34197;BME280;36594;45.192;5.722;2023-04-10T15:18:06;99351.52;;;24.45;32.57
34197;BME280;36594;45.192;5.722;2023-04-10T15:20:54;99348.19;;;24.43;32.57
34197;BME280;36594;45.192;5.722;2023-04-10T15:23:43;99352.58;;;24.44;32.56
34197;BME280;36594;45.192;5.722;2023-04-10T15:26:32;99356.70;;;24.44;32.52
34197;BME280;36594;45.192;5.722;2023-04-10T15:29:21;99356.66;;;24.42;32.61